sensor_id;sensor_type;location;lat;lon;timestamp;P1;durP1;ratioP1;P2;durP2;ratioP2
51792;SDS011;37850;53.178;6.376;2023-07-30T00:02:18;16.35;;;4.88;;
51792;SDS011;37850;53.178;6.376;2023-07-30T00:04:44;15.98;;;5.57;;
51792;SDS011;37850;53.178;6.376;2023-07-30T00:07:10;17.10;;;4.72;;
51792;SDS011;37850;53.178;6.376;2023-07-30T00:09:37;20.23;;;5.22;;
51792;SDS011;37850;53.178;6.376;2023-07-30T00:12:04;17.00;;;5.65;;
51792;SDS011;37850;53.178;6.376;2023-07-30T00:14:31;23.42;;;5.60;;
51792;SDS011;37850;53.178;6.376;2023-07-30T00:16:57;23.80;;;6.13;;
51792;SDS011;37850;53.178;6.376;2023-07-30T00:19:22;21.80;;;5.60;;
51792;SDS011;37850;53.178;6.376;2023-07-30T00:21:48;19.60;;;5.38;;
51792;SDS011;37850;53.178;6.376;2023-07-30T00:24:14;19.77;;;5.45;;
51792;SDS011;37850;53.178;6.376;2023-07-30T00:26:39;28.23;;;6.15;;
51792;SDS011;37850;53.178;6.376;2023-07-30T00:29:05;19.33;;;5.68;;
51792;SDS011;37850;53.178;6.376;2023-07-30T00:31:31;23.42;;;5.85;;
51792;SDS011;37850;53.178;6.376;2023-07-30T00:33:57;24.77;;;5.93;;
51792;SDS011;37850;53.178;6.376;2023-07-30T00:36:22;21.50;;;6.40;;
51792;SDS011;37850;53.178;6.376;2023-07-30T00:38:48;19.17;;;5.60;;
51792;SDS011;37850;53.178;6.376;2023-07-30T00:41:14;21.40;;;5.82;;
51792;SDS011;37850;53.178;6.376;2023-07-30T00:43:40;24.35;;;7.03;;
51792;SDS011;37850;53.178;6.376;2023-07-30T00:46:05;21.20;;;6.10;;
51792;SDS011;37850;53.178;6.376;2023-07-30T00:48:32;26.60;;;6.78;;
51792;SDS011;37850;53.178;6.376;2023-07-30T00:50:58;21.75;;;6.70;;
51792;SDS011;37850;53.178;6.376;2023-07-30T00:53:26;23.17;;;6.80;;
51792;SDS011;37850;53.178;6.376;2023-07-30T00:55:52;20.15;;;6.10;;
51792;SDS011;37850;53.178;6.376;2023-07-30T00:58:20;21.33;;;6.68;;
51792;SDS011;37850;53.178;6.376;2023-07-30T01:00:46;22.42;;;6.88;;
51792;SDS011;37850;53.178;6.376;2023-07-30T01:03:12;18.80;;;6.75;;
51792;SDS011;37850;53.178;6.376;2023-07-30T01:05:38;28.55;;;7.47;;
51792;SDS011;37850;53.178;6.376;2023-07-30T01:08:04;25.25;;;7.68;;
51792;SDS011;37850;53.178;6.376;2023-07-30T01:10:30;18.73;;;6.10;;
51792;SDS011;37850;53.178;6.376;2023-07-30T01:13:01;22.85;;;7.57;;
51792;SDS011;37850;53.178;6.376;2023-07-30T01:15:28;22.25;;;7.38;;
51792;SDS011;37850;53.178;6.376;2023-07-30T01:17:55;21.40;;;6.82;;
51792;SDS011;37850;53.178;6.376;2023-07-30T01:20:21;20.42;;;6.30;;
51792;SDS011;37850;53.178;6.376;2023-07-30T01:22:47;20.48;;;6.53;;
51792;SDS011;37850;53.178;6.376;2023-07-30T01:25:13;21.15;;;6.78;;
51792;SDS011;37850;53.178;6.376;2023-07-30T01:27:41;23.02;;;7.07;;
51792;SDS011;37850;53.178;6.376;2023-07-30T01:32:41;23.50;;;6.18;;
51792;SDS011;37850;53.178;6.376;2023-07-30T01:35:08;28.10;;;7.85;;
51792;SDS011;37850;53.178;6.376;2023-07-30T01:37:34;21.35;;;7.05;;
51792;SDS011;37850;53.178;6.376;2023-07-30T01:40:02;25.63;;;6.45;;
51792;SDS011;37850;53.178;6.376;2023-07-30T01:42:29;15.93;;;5.45;;
51792;SDS011;37850;53.178;6.376;2023-07-30T01:44:55;16.85;;;6.03;;
51792;SDS011;37850;53.178;6.376;2023-07-30T01:47:21;24.17;;;5.85;;
51792;SDS011;37850;53.178;6.376;2023-07-30T01:49:47;26.05;;;6.97;;
51792;SDS011;37850;53.178;6.376;2023-07-30T01:52:13;20.20;;;5.95;;
51792;SDS011;37850;53.178;6.376;2023-07-30T01:54:39;20.13;;;6.28;;
51792;SDS011;37850;53.178;6.376;2023-07-30T01:57:04;32.47;;;6.50;;
51792;SDS011;37850;53.178;6.376;2023-07-30T01:59:30;20.85;;;6.05;;
51792;SDS011;37850;53.178;6.376;2023-07-30T02:01:56;23.92;;;6.05;;
51792;SDS011;37850;53.178;6.376;2023-07-30T02:04:22;20.70;;;6.57;;
51792;SDS011;37850;53.178;6.376;2023-07-30T02:06:48;18.20;;;5.60;;
51792;SDS011;37850;53.178;6.376;2023-07-30T02:09:14;22.52;;;5.65;;
51792;SDS011;37850;53.178;6.376;2023-07-30T02:11:39;20.95;;;5.70;;
51792;SDS011;37850;53.178;6.376;2023-07-30T02:14:05;21.83;;;6.30;;
51792;SDS011;37850;53.178;6.376;2023-07-30T02:16:31;20.58;;;5.72;;
51792;SDS011;37850;53.178;6.376;2023-07-30T02:18:56;25.30;;;6.47;;
51792;SDS011;37850;53.178;6.376;2023-07-30T02:21:22;23.42;;;7.00;;
51792;SDS011;37850;53.178;6.376;2023-07-30T02:23:48;23.05;;;6.07;;
51792;SDS011;37850;53.178;6.376;2023-07-30T02:26:14;22.58;;;6.13;;
51792;SDS011;37850;53.178;6.376;2023-07-30T02:28:39;21.88;;;5.55;;
51792;SDS011;37850;53.178;6.376;2023-07-30T02:31:05;26.73;;;5.57;;
51792;SDS011;37850;53.178;6.376;2023-07-30T02:33:31;21.50;;;5.80;;
51792;SDS011;37850;53.178;6.376;2023-07-30T02:35:57;29.67;;;6.53;;
51792;SDS011;37850;53.178;6.376;2023-07-30T02:38:22;31.88;;;6.70;;
51792;SDS011;37850;53.178;6.376;2023-07-30T02:40:48;28.45;;;6.47;;
51792;SDS011;37850;53.178;6.376;2023-07-30T02:43:14;23.38;;;5.97;;
51792;SDS011;37850;53.178;6.376;2023-07-30T02:45:40;25.40;;;6.05;;
51792;SDS011;37850;53.178;6.376;2023-07-30T02:48:05;21.42;;;5.90;;
51792;SDS011;37850;53.178;6.376;2023-07-30T02:50:31;22.35;;;5.95;;
51792;SDS011;37850;53.178;6.376;2023-07-30T02:52:57;23.52;;;6.30;;
51792;SDS011;37850;53.178;6.376;2023-07-30T02:55:23;23.60;;;5.53;;
51792;SDS011;37850;53.178;6.376;2023-07-30T02:57:48;26.52;;;5.32;;
51792;SDS011;37850;53.178;6.376;2023-07-30T03:00:14;18.52;;;5.22;;
51792;SDS011;37850;53.178;6.376;2023-07-30T03:02:40;23.42;;;5.75;;
51792;SDS011;37850;53.178;6.376;2023-07-30T03:05:06;21.70;;;5.80;;
51792;SDS011;37850;53.178;6.376;2023-07-30T03:07:32;20.67;;;5.57;;
51792;SDS011;37850;53.178;6.376;2023-07-30T03:09:58;20.70;;;5.85;;
51792;SDS011;37850;53.178;6.376;2023-07-30T03:12:24;22.95;;;6.03;;
51792;SDS011;37850;53.178;6.376;2023-07-30T03:14:49;21.73;;;5.50;;
51792;SDS011;37850;53.178;6.376;2023-07-30T03:17:15;26.02;;;6.38;;
51792;SDS011;37850;53.178;6.376;2023-07-30T03:19:41;22.65;;;5.57;;
51792;SDS011;37850;53.178;6.376;2023-07-30T03:22:07;30.73;;;6.63;;
51792;SDS011;37850;53.178;6.376;2023-07-30T03:24:33;25.83;;;5.93;;
51792;SDS011;37850;53.178;6.376;2023-07-30T03:26:58;25.10;;;5.78;;
51792;SDS011;37850;53.178;6.376;2023-07-30T03:29:24;25.90;;;6.47;;
51792;SDS011;37850;53.178;6.376;2023-07-30T03:31:50;25.90;;;5.80;;
51792;SDS011;37850;53.178;6.376;2023-07-30T03:34:15;19.10;;;5.65;;
51792;SDS011;37850;53.178;6.376;2023-07-30T03:36:41;24.00;;;6.15;;
51792;SDS011;37850;53.178;6.376;2023-07-30T03:39:07;23.30;;;5.50;;
51792;SDS011;37850;53.178;6.376;2023-07-30T03:41:32;21.38;;;5.40;;
51792;SDS011;37850;53.178;6.376;2023-07-30T03:44:00;17.77;;;5.18;;
51792;SDS011;37850;53.178;6.376;2023-07-30T03:46:26;18.15;;;5.07;;
51792;SDS011;37850;53.178;6.376;2023-07-30T03:48:51;25.50;;;5.70;;
51792;SDS011;37850;53.178;6.376;2023-07-30T03:51:17;24.38;;;5.32;;
51792;SDS011;37850;53.178;6.376;2023-07-30T03:53:43;22.67;;;6.32;;
51792;SDS011;37850;53.178;6.376;2023-07-30T03:56:09;21.60;;;4.63;;
51792;SDS011;37850;53.178;6.376;2023-07-30T03:58:34;23.23;;;5.40;;
51792;SDS011;37850;53.178;6.376;2023-07-30T04:01:01;20.52;;;4.97;;
51792;SDS011;37850;53.178;6.376;2023-07-30T04:03:27;23.67;;;5.40;;
51792;SDS011;37850;53.178;6.376;2023-07-30T04:05:52;26.98;;;5.47;;
51792;SDS011;37850;53.178;6.376;2023-07-30T04:08:18;25.02;;;5.30;;
51792;SDS011;37850;53.178;6.376;2023-07-30T04:10:44;22.30;;;5.75;;
51792;SDS011;37850;53.178;6.376;2023-07-30T04:13:10;17.80;;;4.60;;
51792;SDS011;37850;53.178;6.376;2023-07-30T04:15:35;20.58;;;5.20;;
51792;SDS011;37850;53.178;6.376;2023-07-30T04:18:01;22.75;;;5.20;;
51792;SDS011;37850;53.178;6.376;2023-07-30T04:20:27;17.50;;;4.32;;
51792;SDS011;37850;53.178;6.376;2023-07-30T04:22:52;19.38;;;5.05;;
51792;SDS011;37850;53.178;6.376;2023-07-30T04:25:18;21.48;;;5.72;;
51792;SDS011;37850;53.178;6.376;2023-07-30T04:27:44;24.05;;;5.03;;
51792;SDS011;37850;53.178;6.376;2023-07-30T04:30:10;22.05;;;4.82;;
51792;SDS011;37850;53.178;6.376;2023-07-30T04:32:36;17.67;;;5.10;;
51792;SDS011;37850;53.178;6.376;2023-07-30T04:35:01;18.63;;;4.45;;
51792;SDS011;37850;53.178;6.376;2023-07-30T04:37:28;19.10;;;4.75;;
51792;SDS011;37850;53.178;6.376;2023-07-30T04:39:54;21.40;;;5.20;;
51792;SDS011;37850;53.178;6.376;2023-07-30T04:42:19;16.20;;;4.80;;
51792;SDS011;37850;53.178;6.376;2023-07-30T04:44:45;22.15;;;4.35;;
51792;SDS011;37850;53.178;6.376;2023-07-30T04:47:11;22.48;;;4.70;;
51792;SDS011;37850;53.178;6.376;2023-07-30T04:49:37;18.20;;;4.70;;
51792;SDS011;37850;53.178;6.376;2023-07-30T04:52:05;21.45;;;5.03;;
51792;SDS011;37850;53.178;6.376;2023-07-30T04:54:32;21.08;;;4.20;;
51792;SDS011;37850;53.178;6.376;2023-07-30T04:56:58;18.45;;;4.13;;
51792;SDS011;37850;53.178;6.376;2023-07-30T04:59:24;17.13;;;4.15;;
51792;SDS011;37850;53.178;6.376;2023-07-30T05:01:50;21.42;;;3.67;;
51792;SDS011;37850;53.178;6.376;2023-07-30T05:04:15;15.15;;;3.30;;
51792;SDS011;37850;53.178;6.376;2023-07-30T05:06:41;19.77;;;3.90;;
51792;SDS011;37850;53.178;6.376;2023-07-30T05:09:07;18.67;;;3.42;;
51792;SDS011;37850;53.178;6.376;2023-07-30T05:11:32;18.02;;;4.03;;
51792;SDS011;37850;53.178;6.376;2023-07-30T05:13:58;15.30;;;3.35;;
51792;SDS011;37850;53.178;6.376;2023-07-30T05:16:24;18.67;;;3.55;;
51792;SDS011;37850;53.178;6.376;2023-07-30T05:18:49;18.30;;;3.70;;
51792;SDS011;37850;53.178;6.376;2023-07-30T05:21:15;19.73;;;4.20;;
51792;SDS011;37850;53.178;6.376;2023-07-30T05:23:41;19.88;;;4.60;;
51792;SDS011;37850;53.178;6.376;2023-07-30T05:26:06;16.70;;;4.75;;
51792;SDS011;37850;53.178;6.376;2023-07-30T05:28:32;19.23;;;4.28;;
51792;SDS011;37850;53.178;6.376;2023-07-30T05:30:58;14.20;;;3.25;;
51792;SDS011;37850;53.178;6.376;2023-07-30T05:33:24;20.80;;;4.13;;
51792;SDS011;37850;53.178;6.376;2023-07-30T05:35:49;20.10;;;3.70;;
51792;SDS011;37850;53.178;6.376;2023-07-30T05:38:15;14.82;;;3.28;;
51792;SDS011;37850;53.178;6.376;2023-07-30T05:40:41;23.38;;;4.80;;
51792;SDS011;37850;53.178;6.376;2023-07-30T05:43:07;15.10;;;3.35;;
51792;SDS011;37850;53.178;6.376;2023-07-30T05:45:33;17.30;;;3.30;;
51792;SDS011;37850;53.178;6.376;2023-07-30T05:48:00;15.75;;;3.30;;
51792;SDS011;37850;53.178;6.376;2023-07-30T05:50:25;13.60;;;3.17;;
51792;SDS011;37850;53.178;6.376;2023-07-30T05:52:51;17.35;;;3.60;;
51792;SDS011;37850;53.178;6.376;2023-07-30T05:55:17;14.77;;;3.72;;
51792;SDS011;37850;53.178;6.376;2023-07-30T05:57:42;16.10;;;3.10;;
51792;SDS011;37850;53.178;6.376;2023-07-30T06:00:08;15.80;;;3.22;;
51792;SDS011;37850;53.178;6.376;2023-07-30T06:02:34;17.42;;;2.92;;
51792;SDS011;37850;53.178;6.376;2023-07-30T06:05:00;19.80;;;3.17;;
51792;SDS011;37850;53.178;6.376;2023-07-30T06:07:26;12.10;;;2.78;;
51792;SDS011;37850;53.178;6.376;2023-07-30T06:09:51;16.80;;;4.05;;
51792;SDS011;37850;53.178;6.376;2023-07-30T06:12:17;15.13;;;3.20;;
51792;SDS011;37850;53.178;6.376;2023-07-30T06:14:43;17.65;;;3.33;;
51792;SDS011;37850;53.178;6.376;2023-07-30T06:17:08;16.48;;;3.35;;
51792;SDS011;37850;53.178;6.376;2023-07-30T06:19:34;16.75;;;3.30;;
51792;SDS011;37850;53.178;6.376;2023-07-30T06:22:00;15.73;;;3.05;;
51792;SDS011;37850;53.178;6.376;2023-07-30T06:24:25;18.73;;;3.30;;
51792;SDS011;37850;53.178;6.376;2023-07-30T06:26:51;14.55;;;3.22;;
51792;SDS011;37850;53.178;6.376;2023-07-30T06:29:17;13.25;;;3.00;;
51792;SDS011;37850;53.178;6.376;2023-07-30T06:31:42;12.23;;;2.80;;
51792;SDS011;37850;53.178;6.376;2023-07-30T06:34:08;12.23;;;2.55;;
51792;SDS011;37850;53.178;6.376;2023-07-30T06:36:34;13.77;;;2.65;;
51792;SDS011;37850;53.178;6.376;2023-07-30T06:39:00;16.77;;;3.20;;
51792;SDS011;37850;53.178;6.376;2023-07-30T06:41:26;19.58;;;3.60;;
51792;SDS011;37850;53.178;6.376;2023-07-30T06:43:52;16.70;;;4.30;;
51792;SDS011;37850;53.178;6.376;2023-07-30T06:46:17;17.92;;;3.58;;
51792;SDS011;37850;53.178;6.376;2023-07-30T06:48:43;15.63;;;3.17;;
51792;SDS011;37850;53.178;6.376;2023-07-30T06:51:09;21.65;;;3.42;;
51792;SDS011;37850;53.178;6.376;2023-07-30T06:53:36;14.77;;;3.50;;
51792;SDS011;37850;53.178;6.376;2023-07-30T06:56:02;14.52;;;3.50;;
51792;SDS011;37850;53.178;6.376;2023-07-30T06:58:28;14.27;;;2.83;;
51792;SDS011;37850;53.178;6.376;2023-07-30T07:00:54;15.20;;;2.92;;
51792;SDS011;37850;53.178;6.376;2023-07-30T07:03:19;11.35;;;3.17;;
51792;SDS011;37850;53.178;6.376;2023-07-30T07:05:51;10.68;;;2.45;;
51792;SDS011;37850;53.178;6.376;2023-07-30T07:08:19;12.82;;;2.50;;
51792;SDS011;37850;53.178;6.376;2023-07-30T07:10:45;12.80;;;2.60;;
51792;SDS011;37850;53.178;6.376;2023-07-30T07:13:10;15.45;;;3.90;;
51792;SDS011;37850;53.178;6.376;2023-07-30T07:15:40;12.77;;;2.58;;
51792;SDS011;37850;53.178;6.376;2023-07-30T07:18:09;18.05;;;3.05;;
51792;SDS011;37850;53.178;6.376;2023-07-30T07:20:36;14.35;;;2.70;;
51792;SDS011;37850;53.178;6.376;2023-07-30T07:23:04;14.85;;;2.63;;
51792;SDS011;37850;53.178;6.376;2023-07-30T07:25:30;15.52;;;2.70;;
51792;SDS011;37850;53.178;6.376;2023-07-30T07:27:56;11.75;;;2.45;;
51792;SDS011;37850;53.178;6.376;2023-07-30T07:30:22;11.02;;;2.15;;
51792;SDS011;37850;53.178;6.376;2023-07-30T07:32:47;17.70;;;2.78;;
51792;SDS011;37850;53.178;6.376;2023-07-30T07:35:16;12.07;;;2.50;;
51792;SDS011;37850;53.178;6.376;2023-07-30T07:37:44;15.10;;;2.55;;
51792;SDS011;37850;53.178;6.376;2023-07-30T07:40:09;11.57;;;2.50;;
51792;SDS011;37850;53.178;6.376;2023-07-30T07:42:35;14.30;;;3.33;;
51792;SDS011;37850;53.178;6.376;2023-07-30T07:45:02;15.07;;;2.35;;
51792;SDS011;37850;53.178;6.376;2023-07-30T07:47:28;13.80;;;2.42;;
51792;SDS011;37850;53.178;6.376;2023-07-30T07:49:54;17.20;;;2.88;;
51792;SDS011;37850;53.178;6.376;2023-07-30T07:52:20;13.05;;;2.50;;
51792;SDS011;37850;53.178;6.376;2023-07-30T07:54:45;12.20;;;2.05;;
51792;SDS011;37850;53.178;6.376;2023-07-30T07:57:11;18.92;;;3.33;;
51792;SDS011;37850;53.178;6.376;2023-07-30T07:59:37;11.02;;;1.90;;
51792;SDS011;37850;53.178;6.376;2023-07-30T08:02:03;11.57;;;2.75;;
51792;SDS011;37850;53.178;6.376;2023-07-30T08:04:29;19.05;;;2.42;;
51792;SDS011;37850;53.178;6.376;2023-07-30T08:06:54;13.02;;;2.15;;
51792;SDS011;37850;53.178;6.376;2023-07-30T08:09:24;12.60;;;2.47;;
51792;SDS011;37850;53.178;6.376;2023-07-30T08:11:50;11.20;;;1.88;;
51792;SDS011;37850;53.178;6.376;2023-07-30T08:14:16;12.10;;;2.10;;
51792;SDS011;37850;53.178;6.376;2023-07-30T08:16:42;14.63;;;2.70;;
51792;SDS011;37850;53.178;6.376;2023-07-30T08:19:07;12.73;;;2.30;;
51792;SDS011;37850;53.178;6.376;2023-07-30T08:21:33;12.57;;;2.67;;
51792;SDS011;37850;53.178;6.376;2023-07-30T08:23:59;14.27;;;2.42;;
51792;SDS011;37850;53.178;6.376;2023-07-30T08:26:24;14.52;;;2.15;;
51792;SDS011;37850;53.178;6.376;2023-07-30T08:28:50;10.18;;;2.63;;
51792;SDS011;37850;53.178;6.376;2023-07-30T08:31:16;13.55;;;2.60;;
51792;SDS011;37850;53.178;6.376;2023-07-30T08:33:41;9.48;;;1.83;;
51792;SDS011;37850;53.178;6.376;2023-07-30T08:36:07;13.63;;;2.42;;
51792;SDS011;37850;53.178;6.376;2023-07-30T08:38:33;13.60;;;2.38;;
51792;SDS011;37850;53.178;6.376;2023-07-30T08:40:59;15.45;;;3.03;;
51792;SDS011;37850;53.178;6.376;2023-07-30T08:43:25;8.68;;;2.13;;
51792;SDS011;37850;53.178;6.376;2023-07-30T08:45:51;12.40;;;2.20;;
51792;SDS011;37850;53.178;6.376;2023-07-30T08:48:17;10.50;;;1.90;;
51792;SDS011;37850;53.178;6.376;2023-07-30T08:50:42;10.60;;;2.15;;
51792;SDS011;37850;53.178;6.376;2023-07-30T08:53:09;9.73;;;2.28;;
51792;SDS011;37850;53.178;6.376;2023-07-30T08:55:35;16.35;;;2.65;;
51792;SDS011;37850;53.178;6.376;2023-07-30T08:58:02;11.88;;;2.03;;
51792;SDS011;37850;53.178;6.376;2023-07-30T09:00:34;13.40;;;2.30;;
51792;SDS011;37850;53.178;6.376;2023-07-30T09:03:02;11.45;;;2.30;;
51792;SDS011;37850;53.178;6.376;2023-07-30T09:05:29;16.67;;;2.53;;
51792;SDS011;37850;53.178;6.376;2023-07-30T09:07:56;14.52;;;2.35;;
51792;SDS011;37850;53.178;6.376;2023-07-30T09:10:22;9.63;;;2.20;;
51792;SDS011;37850;53.178;6.376;2023-07-30T09:12:55;12.88;;;2.20;;
51792;SDS011;37850;53.178;6.376;2023-07-30T09:15:34;10.95;;;2.10;;
51792;SDS011;37850;53.178;6.376;2023-07-30T09:18:04;11.07;;;2.22;;
51792;SDS011;37850;53.178;6.376;2023-07-30T09:20:37;10.68;;;1.83;;
51792;SDS011;37850;53.178;6.376;2023-07-30T09:23:04;10.73;;;1.67;;
51792;SDS011;37850;53.178;6.376;2023-07-30T09:25:32;8.95;;;1.75;;
51792;SDS011;37850;53.178;6.376;2023-07-30T09:27:58;9.10;;;2.00;;
51792;SDS011;37850;53.178;6.376;2023-07-30T09:30:24;6.80;;;1.45;;
51792;SDS011;37850;53.178;6.376;2023-07-30T09:32:52;7.97;;;1.55;;
51792;SDS011;37850;53.178;6.376;2023-07-30T09:35:19;6.13;;;1.30;;
51792;SDS011;37850;53.178;6.376;2023-07-30T09:37:45;5.18;;;1.30;;
51792;SDS011;37850;53.178;6.376;2023-07-30T09:40:14;8.40;;;1.50;;
51792;SDS011;37850;53.178;6.376;2023-07-30T09:42:46;8.27;;;1.35;;
51792;SDS011;37850;53.178;6.376;2023-07-30T09:45:23;7.47;;;1.40;;
51792;SDS011;37850;53.178;6.376;2023-07-30T09:47:51;7.65;;;1.60;;
51792;SDS011;37850;53.178;6.376;2023-07-30T09:50:18;8.38;;;1.63;;
51792;SDS011;37850;53.178;6.376;2023-07-30T09:52:44;6.72;;;1.40;;
51792;SDS011;37850;53.178;6.376;2023-07-30T09:55:11;9.27;;;1.65;;
51792;SDS011;37850;53.178;6.376;2023-07-30T09:57:37;7.05;;;1.73;;
51792;SDS011;37850;53.178;6.376;2023-07-30T10:00:04;8.30;;;1.45;;
51792;SDS011;37850;53.178;6.376;2023-07-30T10:02:33;8.77;;;1.70;;
51792;SDS011;37850;53.178;6.376;2023-07-30T10:05:04;12.68;;;1.77;;
51792;SDS011;37850;53.178;6.376;2023-07-30T10:07:36;7.68;;;1.45;;
51792;SDS011;37850;53.178;6.376;2023-07-30T10:10:07;7.60;;;1.50;;
51792;SDS011;37850;53.178;6.376;2023-07-30T10:12:35;10.77;;;2.72;;
51792;SDS011;37850;53.178;6.376;2023-07-30T10:15:02;11.57;;;1.67;;
51792;SDS011;37850;53.178;6.376;2023-07-30T10:17:28;6.93;;;1.30;;
51792;SDS011;37850;53.178;6.376;2023-07-30T10:19:57;9.30;;;1.48;;
51792;SDS011;37850;53.178;6.376;2023-07-30T10:22:42;8.77;;;2.10;;
51792;SDS011;37850;53.178;6.376;2023-07-30T10:25:12;15.15;;;2.40;;
51792;SDS011;37850;53.178;6.376;2023-07-30T10:27:38;12.05;;;2.50;;
51792;SDS011;37850;53.178;6.376;2023-07-30T10:30:12;9.00;;;1.80;;
51792;SDS011;37850;53.178;6.376;2023-07-30T10:40:39;14.30;;;2.75;;
51792;SDS011;37850;53.178;6.376;2023-07-30T10:43:15;9.88;;;2.15;;
51792;SDS011;37850;53.178;6.376;2023-07-30T10:45:48;9.43;;;2.35;;
51792;SDS011;37850;53.178;6.376;2023-07-30T10:48:16;13.18;;;2.50;;
51792;SDS011;37850;53.178;6.376;2023-07-30T10:50:43;13.32;;;2.20;;
51792;SDS011;37850;53.178;6.376;2023-07-30T10:53:14;11.07;;;1.80;;
51792;SDS011;37850;53.178;6.376;2023-07-30T10:55:41;13.85;;;3.15;;
51792;SDS011;37850;53.178;6.376;2023-07-30T10:58:07;9.57;;;1.70;;
51792;SDS011;37850;53.178;6.376;2023-07-30T11:00:33;11.82;;;2.03;;
51792;SDS011;37850;53.178;6.376;2023-07-30T11:02:59;15.23;;;2.63;;
51792;SDS011;37850;53.178;6.376;2023-07-30T11:05:24;9.43;;;2.03;;
51792;SDS011;37850;53.178;6.376;2023-07-30T11:07:51;10.40;;;2.00;;
51792;SDS011;37850;53.178;6.376;2023-07-30T11:10:17;11.82;;;1.98;;
51792;SDS011;37850;53.178;6.376;2023-07-30T11:12:43;13.43;;;2.33;;
51792;SDS011;37850;53.178;6.376;2023-07-30T11:15:12;11.02;;;2.33;;
51792;SDS011;37850;53.178;6.376;2023-07-30T11:17:37;11.95;;;2.78;;
51792;SDS011;37850;53.178;6.376;2023-07-30T11:20:03;9.85;;;2.08;;
51792;SDS011;37850;53.178;6.376;2023-07-30T11:22:30;11.38;;;2.30;;
51792;SDS011;37850;53.178;6.376;2023-07-30T11:24:56;11.45;;;1.90;;
51792;SDS011;37850;53.178;6.376;2023-07-30T11:27:23;8.27;;;2.13;;
51792;SDS011;37850;53.178;6.376;2023-07-30T11:29:55;11.90;;;2.75;;
51792;SDS011;37850;53.178;6.376;2023-07-30T11:32:22;7.75;;;1.80;;
51792;SDS011;37850;53.178;6.376;2023-07-30T11:34:54;13.23;;;2.58;;
51792;SDS011;37850;53.178;6.376;2023-07-30T11:37:20;9.77;;;1.83;;
51792;SDS011;37850;53.178;6.376;2023-07-30T11:39:47;12.02;;;2.35;;
51792;SDS011;37850;53.178;6.376;2023-07-30T11:42:13;13.98;;;2.10;;
51792;SDS011;37850;53.178;6.376;2023-07-30T11:44:39;10.60;;;2.30;;
51792;SDS011;37850;53.178;6.376;2023-07-30T11:47:07;10.95;;;2.20;;
51792;SDS011;37850;53.178;6.376;2023-07-30T11:49:34;10.88;;;2.00;;
51792;SDS011;37850;53.178;6.376;2023-07-30T11:52:09;11.20;;;2.20;;
51792;SDS011;37850;53.178;6.376;2023-07-30T11:54:36;10.18;;;1.55;;
51792;SDS011;37850;53.178;6.376;2023-07-30T11:57:02;12.05;;;1.98;;
51792;SDS011;37850;53.178;6.376;2023-07-30T11:59:30;9.98;;;2.15;;
51792;SDS011;37850;53.178;6.376;2023-07-30T12:01:56;10.48;;;1.83;;
51792;SDS011;37850;53.178;6.376;2023-07-30T12:04:22;10.45;;;2.13;;
51792;SDS011;37850;53.178;6.376;2023-07-30T12:06:50;10.50;;;2.20;;
51792;SDS011;37850;53.178;6.376;2023-07-30T12:09:22;10.85;;;2.40;;
51792;SDS011;37850;53.178;6.376;2023-07-30T12:14:25;13.07;;;2.30;;
51792;SDS011;37850;53.178;6.376;2023-07-30T12:17:04;10.73;;;1.80;;
51792;SDS011;37850;53.178;6.376;2023-07-30T12:19:30;9.60;;;1.80;;
51792;SDS011;37850;53.178;6.376;2023-07-30T12:21:56;6.80;;;1.40;;
51792;SDS011;37850;53.178;6.376;2023-07-30T12:24:22;6.88;;;1.50;;
51792;SDS011;37850;53.178;6.376;2023-07-30T12:26:47;11.75;;;2.08;;
51792;SDS011;37850;53.178;6.376;2023-07-30T12:29:13;5.40;;;1.58;;
51792;SDS011;37850;53.178;6.376;2023-07-30T12:31:39;9.75;;;1.88;;
51792;SDS011;37850;53.178;6.376;2023-07-30T12:34:05;9.40;;;2.00;;
51792;SDS011;37850;53.178;6.376;2023-07-30T12:36:30;10.55;;;2.35;;
51792;SDS011;37850;53.178;6.376;2023-07-30T12:38:56;10.02;;;1.85;;
51792;SDS011;37850;53.178;6.376;2023-07-30T12:41:22;10.95;;;2.35;;
51792;SDS011;37850;53.178;6.376;2023-07-30T12:43:51;9.55;;;2.20;;
51792;SDS011;37850;53.178;6.376;2023-07-30T12:46:18;12.50;;;2.20;;
51792;SDS011;37850;53.178;6.376;2023-07-30T12:48:44;11.20;;;2.08;;
51792;SDS011;37850;53.178;6.376;2023-07-30T12:51:10;9.15;;;1.80;;
51792;SDS011;37850;53.178;6.376;2023-07-30T12:53:35;8.13;;;1.67;;
51792;SDS011;37850;53.178;6.376;2023-07-30T12:56:01;10.18;;;1.17;;
51792;SDS011;37850;53.178;6.376;2023-07-30T12:58:27;7.50;;;1.40;;
51792;SDS011;37850;53.178;6.376;2023-07-30T13:00:52;8.75;;;1.40;;
51792;SDS011;37850;53.178;6.376;2023-07-30T13:03:18;8.65;;;1.48;;
51792;SDS011;37850;53.178;6.376;2023-07-30T13:05:44;14.52;;;2.20;;
51792;SDS011;37850;53.178;6.376;2023-07-30T13:08:10;5.65;;;1.25;;
51792;SDS011;37850;53.178;6.376;2023-07-30T13:10:35;9.60;;;1.80;;
51792;SDS011;37850;53.178;6.376;2023-07-30T13:13:01;9.85;;;1.45;;
51792;SDS011;37850;53.178;6.376;2023-07-30T13:15:27;10.07;;;1.85;;
51792;SDS011;37850;53.178;6.376;2023-07-30T13:17:53;7.97;;;1.85;;
51792;SDS011;37850;53.178;6.376;2023-07-30T13:20:19;9.05;;;1.40;;
51792;SDS011;37850;53.178;6.376;2023-07-30T13:22:44;8.98;;;2.03;;
51792;SDS011;37850;53.178;6.376;2023-07-30T13:25:10;8.88;;;2.15;;
51792;SDS011;37850;53.178;6.376;2023-07-30T13:27:36;7.38;;;1.48;;
51792;SDS011;37850;53.178;6.376;2023-07-30T13:30:02;10.25;;;1.70;;
51792;SDS011;37850;53.178;6.376;2023-07-30T13:32:28;8.30;;;1.63;;
51792;SDS011;37850;53.178;6.376;2023-07-30T13:34:53;10.85;;;2.28;;
51792;SDS011;37850;53.178;6.376;2023-07-30T13:37:19;8.20;;;1.55;;
51792;SDS011;37850;53.178;6.376;2023-07-30T13:39:45;8.05;;;1.85;;
51792;SDS011;37850;53.178;6.376;2023-07-30T13:42:11;9.40;;;1.88;;
51792;SDS011;37850;53.178;6.376;2023-07-30T13:44:36;11.35;;;1.73;;
51792;SDS011;37850;53.178;6.376;2023-07-30T13:47:02;6.95;;;1.30;;
51792;SDS011;37850;53.178;6.376;2023-07-30T13:49:28;12.10;;;1.85;;
51792;SDS011;37850;53.178;6.376;2023-07-30T13:51:54;9.05;;;1.40;;
51792;SDS011;37850;53.178;6.376;2023-07-30T13:54:20;7.13;;;1.55;;
51792;SDS011;37850;53.178;6.376;2023-07-30T13:56:45;7.63;;;1.40;;
51792;SDS011;37850;53.178;6.376;2023-07-30T13:59:11;7.20;;;1.50;;
51792;SDS011;37850;53.178;6.376;2023-07-30T14:01:37;8.10;;;1.63;;
51792;SDS011;37850;53.178;6.376;2023-07-30T14:04:02;7.15;;;1.40;;
51792;SDS011;37850;53.178;6.376;2023-07-30T14:06:28;7.68;;;1.55;;
51792;SDS011;37850;53.178;6.376;2023-07-30T14:08:56;10.43;;;1.80;;
51792;SDS011;37850;53.178;6.376;2023-07-30T14:11:24;8.10;;;1.88;;
51792;SDS011;37850;53.178;6.376;2023-07-30T14:13:51;8.30;;;1.50;;
51792;SDS011;37850;53.178;6.376;2023-07-30T14:16:17;7.82;;;1.48;;
51792;SDS011;37850;53.178;6.376;2023-07-30T14:18:42;9.77;;;2.65;;
51792;SDS011;37850;53.178;6.376;2023-07-30T14:21:08;9.45;;;2.10;;
51792;SDS011;37850;53.178;6.376;2023-07-30T14:23:34;8.13;;;1.80;;
51792;SDS011;37850;53.178;6.376;2023-07-30T14:26:00;8.95;;;1.67;;
51792;SDS011;37850;53.178;6.376;2023-07-30T14:28:26;10.07;;;1.95;;
51792;SDS011;37850;53.178;6.376;2023-07-30T14:30:51;9.10;;;1.75;;
51792;SDS011;37850;53.178;6.376;2023-07-30T14:33:17;11.50;;;1.60;;
51792;SDS011;37850;53.178;6.376;2023-07-30T14:35:43;8.23;;;1.27;;
51792;SDS011;37850;53.178;6.376;2023-07-30T14:38:09;11.77;;;1.77;;
51792;SDS011;37850;53.178;6.376;2023-07-30T14:40:35;9.13;;;1.77;;
51792;SDS011;37850;53.178;6.376;2023-07-30T14:43:00;7.50;;;1.58;;
51792;SDS011;37850;53.178;6.376;2023-07-30T14:45:26;7.97;;;1.20;;
51792;SDS011;37850;53.178;6.376;2023-07-30T14:47:52;8.68;;;1.48;;